Time;durP1;ratioP1;P1;durP2;ratioP2;P2;SDS_P1;SDS_P2;PMS_P1;PMS_P2;Temp;Humidity;BMP_temperature;BMP_pressure;BME280_temperature;BME280_humidity;BME280_pressure;Samples;Min_cycle;Max_cycle;Signal;HPM_P1;HPM_P2
2023/11/19 00:00:16;;;;;;;12.45;4.18;;;;;12.90;100525.00;;;;10314925;28;20282;-73
2023/11/19 00:05:18;;;;;;;5.60;3.67;;;;;12.90;100524.00;;;;10315323;28;20302;-74
2023/11/19 00:10:20;;;;;;;13.18;4.95;;;;;12.90;100532.00;;;;10298802;28;20220;-74
2023/11/19 00:15:24;;;;;;;8.10;4.22;;;;;12.80;100523.00;;;;10305805;28;20919;-73
2023/11/19 00:20:25;;;;;;;7.70;4.07;;;;;12.80;100509.00;;;;10318564;28;20292;-74
2023/11/19 00:25:26;;;;;;;11.88;4.15;;;;;12.80;100501.00;;;;10317261;28;20302;-74
2023/11/19 00:30:27;;;;;;;10.38;4.30;;;;;12.80;100504.00;;;;10314914;28;20224;-74
2023/11/19 00:35:28;;;;;;;16.40;4.40;;;;;12.80;100492.00;;;;10310897;28;20632;-74
2023/11/19 00:40:29;;;;;;;11.85;4.70;;;;;12.80;100482.00;;;;10302380;28;20227;-74
2023/11/19 00:45:31;;;;;;;15.43;4.00;;;;;12.80;100482.00;;;;10326854;28;20228;-74
2023/11/19 00:50:32;;;;;;;13.52;4.53;;;;;12.90;100478.00;;;;10312216;28;20733;-74
2023/11/19 00:55:37;;;;;;;14.60;3.95;;;;;12.80;100483.00;;;;10297646;28;20220;-73
2023/11/19 01:00:48;;;;;;;13.20;3.88;;;;;12.80;100490.00;;;;10322421;28;20238;-73
2023/11/19 01:05:49;;;;;;;11.75;3.65;;;;;12.80;100482.00;;;;10309600;28;20227;-73
2023/11/19 01:10:50;;;;;;;17.52;4.57;;;;;12.80;100479.00;;;;10312385;28;20319;-73
2023/11/19 01:15:51;;;;;;;14.25;4.20;;;;;12.80;100468.00;;;;10318073;28;20215;-73
2023/11/19 01:20:52;;;;;;;20.95;4.63;;;;;12.80;100472.00;;;;10313838;28;20314;-73
2023/11/19 01:25:53;;;;;;;21.25;4.60;;;;;12.80;100484.00;;;;10315995;28;20255;-73
2023/11/19 01:30:54;;;;;;;16.17;3.90;;;;;12.80;100482.00;;;;10315237;28;20286;-73
2023/11/19 01:35:58;;;;;;;21.60;4.53;;;;;12.70;100485.00;;;;10319365;28;20220;-70
2023/11/19 01:41:00;;;;;;;14.48;3.60;;;;;12.70;100479.00;;;;10311534;28;20215;-72
2023/11/19 01:46:05;;;;;;;14.25;4.00;;;;;12.70;100479.00;;;;10308852;28;20224;-72
2023/11/19 01:51:07;;;;;;;17.20;4.28;;;;;12.70;100477.00;;;;10305284;28;20216;-71
2023/11/19 01:56:10;;;;;;;16.00;3.58;;;;;12.70;100495.00;;;;10311906;28;20235;-73
2023/11/19 02:01:12;;;;;;;15.77;3.45;;;;;12.60;100476.00;;;;10320236;28;20216;-71
2023/11/19 02:06:15;;;;;;;18.95;5.05;;;;;12.50;100478.00;;;;10311224;28;20253;-74
2023/11/19 02:11:16;;;;;;;25.65;5.20;;;;;12.40;100463.00;;;;10317458;28;20255;-75
2023/11/19 02:16:17;;;;;;;23.75;4.13;;;;;12.20;100471.00;;;;10332812;28;20307;-74
2023/11/19 02:21:19;;;;;;;23.98;4.57;;;;;12.10;100473.00;;;;10317863;28;20266;-75
2023/11/19 02:26:32;;;;;;;23.23;4.63;;;;;12.10;100472.00;;;;10337383;28;21000;-74
2023/11/19 02:31:34;;;;;;;29.33;4.78;;;;;12.10;100475.00;;;;10287071;28;20315;-74
2023/11/19 02:36:36;;;;;;;24.73;4.43;;;;;12.20;100478.00;;;;10323538;28;20783;-75
2023/11/19 02:41:39;;;;;;;24.33;5.10;;;;;12.20;100478.00;;;;10309707;28;20227;-74
2023/11/19 02:46:42;;;;;;;22.88;5.13;;;;;12.10;100475.00;;;;10313295;28;20310;-76
2023/11/19 02:51:43;;;;;;;33.00;5.10;;;;;12.00;100462.00;;;;10293233;28;20255;-74
2023/11/19 02:56:47;;;;;;;25.25;4.57;;;;;11.90;100459.00;;;;10318920;28;20563;-74
2023/11/19 03:01:50;;;;;;;29.27;4.60;;;;;11.80;100450.00;;;;10327577;28;20224;-74
2023/11/19 03:06:53;;;;;;;28.27;4.40;;;;;11.80;100456.00;;;;10308569;28;20605;-75
2023/11/19 03:11:54;;;;;;;26.05;4.72;;;;;11.80;100453.00;;;;10314016;28;20315;-75
2023/11/19 03:16:55;;;;;;;24.75;5.10;;;;;11.80;100446.00;;;;10318871;28;20216;-73
2023/11/19 03:21:56;;;;;;;23.63;4.97;;;;;11.80;100438.00;;;;10317810;28;20227;-73
2023/11/19 03:26:57;;;;;;;31.73;4.13;;;;;11.70;100439.00;;;;10306310;28;20717;-74
2023/11/19 03:31:59;;;;;;;26.15;5.53;;;;;11.70;100456.00;;;;10309191;28;20347;-74
2023/11/19 03:37:00;;;;;;;35.08;5.03;;;;;11.70;100445.00;;;;10315640;28;20616;-74
2023/11/19 03:42:01;;;;;;;30.05;4.65;;;;;11.50;100450.00;;;;10322043;28;20263;-74
2023/11/19 03:47:02;;;;;;;34.83;5.70;;;;;11.50;100455.00;;;;10319420;28;20307;-74
2023/11/19 03:52:05;;;;;;;35.08;6.10;;;;;11.50;100454.00;;;;10318998;28;20228;-74
2023/11/19 03:57:07;;;;;;;29.58;4.82;;;;;11.40;100462.00;;;;10315535;28;20231;-74
2023/11/19 04:02:08;;;;;;;28.57;4.53;;;;;11.30;100471.00;;;;10317900;28;20361;-73
2023/11/19 04:07:09;;;;;;;25.90;4.88;;;;;11.30;100477.00;;;;10314453;28;20582;-73
2023/11/19 04:12:10;;;;;;;24.80;4.57;;;;;11.30;100467.00;;;;10324429;28;20223;-73
2023/11/19 04:17:11;;;;;;;24.03;4.03;;;;;11.30;100489.00;;;;10315720;28;20220;-74
2023/11/19 04:22:13;;;;;;;32.47;5.43;;;;;11.30;100494.00;;;;10315343;28;20251;-73
2023/11/19 04:27:14;;;;;;;30.80;5.20;;;;;11.40;100493.00;;;;10311099;28;20507;-76
2023/11/19 04:32:15;;;;;;;25.07;5.33;;;;;11.50;100487.00;;;;10320744;28;20233;-76
2023/11/19 04:37:16;;;;;;;26.60;4.85;;;;;11.50;100504.00;;;;10318205;28;20220;-76
2023/11/19 04:42:18;;;;;;;36.20;6.72;;;;;11.50;100520.00;;;;10310649;28;20232;-75
2023/11/19 04:47:19;;;;;;;28.27;5.30;;;;;11.50;100514.00;;;;10309809;28;20233;-76
2023/11/19 04:52:20;;;;;;;26.73;5.10;;;;;11.30;100517.00;;;;10329365;28;20318;-75
2023/11/19 04:57:21;;;;;;;37.97;5.67;;;;;11.20;100505.00;;;;10320203;28;20231;-75
2023/11/19 05:02:22;;;;;;;31.97;4.93;;;;;11.10;100504.00;;;;10319728;28;21174;-76
2023/11/19 05:07:23;;;;;;;29.03;5.53;;;;;11.00;100506.00;;;;10317610;28;20226;-76
2023/11/19 05:12:25;;;;;;;30.03;5.70;;;;;11.00;100516.00;;;;10315607;28;20223;-76
2023/11/19 05:17:26;;;;;;;31.40;5.77;;;;;10.90;100497.00;;;;10316660;28;20302;-76
2023/11/19 05:22:27;;;;;;;36.20;6.17;;;;;10.90;100518.00;;;;10317121;28;20813;-76
2023/11/19 05:27:28;;;;;;;35.43;6.40;;;;;10.80;100505.00;;;;10315564;28;20242;-76
2023/11/19 05:32:29;;;;;;;34.63;5.47;;;;;10.70;100500.00;;;;10313786;28;20794;-76
2023/11/19 05:37:31;;;;;;;35.50;5.20;;;;;10.60;100500.00;;;;10310615;28;20220;-72
2023/11/19 05:42:32;;;;;;;38.17;5.60;;;;;10.60;100506.00;;;;10327062;28;20224;-72
2023/11/19 05:47:33;;;;;;;30.30;5.40;;;;;10.60;100530.00;;;;10311029;28;20231;-73
2023/11/19 05:52:35;;;;;;;40.80;5.90;;;;;10.60;100529.00;;;;10287356;28;20235;-72
2023/11/19 05:57:40;;;;;;;44.47;5.70;;;;;10.50;100508.00;;;;10309922;28;20235;-73
2023/11/19 06:02:44;;;;;;;38.97;6.50;;;;;10.50;100521.00;;;;10311185;28;20242;-72
2023/11/19 06:07:46;;;;;;;36.00;5.93;;;;;10.50;100523.00;;;;10315792;28;20567;-73
2023/11/19 06:12:47;;;;;;;33.33;5.67;;;;;10.50;100519.00;;;;10308964;28;20255;-73
2023/11/19 06:17:48;;;;;;;40.63;6.57;;;;;10.40;100523.00;;;;10318782;28;20410;-72
2023/11/19 06:22:49;;;;;;;41.93;5.87;;;;;10.40;100525.00;;;;10326376;28;20246;-72
2023/11/19 06:27:51;;;;;;;49.13;7.33;;;;;10.40;100537.00;;;;10308350;28;20227;-72
2023/11/19 06:32:52;;;;;;;42.37;6.90;;;;;10.50;100537.00;;;;10312831;28;20916;-73
2023/11/19 06:37:54;;;;;;;32.17;5.83;;;;;10.40;100533.00;;;;10294213;28;20297;-73
2023/11/19 06:42:56;;;;;;;43.20;7.17;;;;;10.40;100538.00;;;;10293273;28;20263;-73
2023/11/19 06:47:58;;;;;;;39.17;6.50;;;;;10.50;100529.00;;;;10313903;28;20323;-73
2023/11/19 06:52:59;;;;;;;38.27;6.40;;;;;10.50;100534.00;;;;10309211;28;20243;-72
2023/11/19 06:58:02;;;;;;;38.47;6.63;;;;;10.50;100548.00;;;;10305380;28;20223;-73
2023/11/19 07:03:03;;;;;;;43.20;6.73;;;;;10.50;100540.00;;;;10309296;28;20290;-73
2023/11/19 07:08:07;;;;;;;42.63;6.53;;;;;10.50;100555.00;;;;10315607;28;20795;-73
2023/11/19 07:13:08;;;;;;;46.00;8.50;;;;;10.50;100558.00;;;;10314992;28;20228;-73
2023/11/19 07:18:09;;;;;;;29.27;6.60;;;;;10.50;100549.00;;;;10328338;28;20222;-72
2023/11/19 07:23:10;;;;;;;28.53;5.70;;;;;10.60;100550.00;;;;10320100;28;20262;-73
2023/11/19 07:28:12;;;;;;;31.70;6.47;;;;;10.60;100554.00;;;;10319326;28;20243;-73
2023/11/19 07:33:13;;;;;;;34.93;5.77;;;;;10.70;100559.00;;;;10316625;28;20227;-73
2023/11/19 07:38:14;;;;;;;33.30;5.90;;;;;10.80;100555.00;;;;10327573;28;20224;-73
2023/11/19 07:43:16;;;;;;;34.97;6.57;;;;;10.80;100547.00;;;;10314877;28;20573;-73
2023/11/19 07:48:22;;;;;;;27.53;5.73;;;;;10.90;100547.00;;;;10313964;28;20235;-73
2023/11/19 07:53:23;;;;;;;24.27;5.73;;;;;11.00;100551.00;;;;10297940;28;20299;-72
2023/11/19 07:58:24;;;;;;;27.00;6.03;;;;;11.10;100547.00;;;;10323645;28;20219;-78
2023/11/19 08:03:25;;;;;;;34.37;6.40;;;;;11.20;100574.00;;;;10315256;28;20234;-79
2023/11/19 08:08:29;;;;;;;30.30;6.23;;;;;11.40;100563.00;;;;10315243;28;20231;-78
2023/11/19 08:13:31;;;;;;;33.53;6.30;;;;;11.40;100574.00;;;;10316326;28;20630;-79
2023/11/19 08:18:32;;;;;;;30.07;6.20;;;;;11.50;100566.00;;;;10332432;28;20243;-80
2023/11/19 08:23:33;;;;;;;28.83;4.90;;;;;11.50;100553.00;;;;10317844;28;20924;-78
2023/11/19 08:28:35;;;;;;;34.43;5.77;;;;;11.70;100551.00;;;;10319201;28;20611;-79
2023/11/19 08:33:37;;;;;;;25.83;5.70;;;;;11.80;100546.00;;;;10297227;28;20224;-78
2023/11/19 08:38:38;;;;;;;24.88;4.50;;;;;12.00;100542.00;;;;10334297;28;20713;-79
2023/11/19 08:43:40;;;;;;;25.02;5.60;;;;;12.10;100564.00;;;;10314620;28;20307;-78
2023/11/19 08:48:41;;;;;;;28.10;5.00;;;;;12.00;100569.00;;;;10314428;28;20235;-79
2023/11/19 08:53:42;;;;;;;27.52;5.18;;;;;12.10;100594.00;;;;10312725;28;20228;-78
2023/11/19 08:58:43;;;;;;;25.05;5.45;;;;;12.10;100593.00;;;;10340360;28;20331;-79
2023/11/19 09:03:45;;;;;;;24.42;5.25;;;;;12.30;100602.00;;;;10320259;28;20263;-79
2023/11/19 09:08:46;;;;;;;21.35;5.43;;;;;12.00;100612.00;;;;10325901;28;20227;-74
2023/11/19 09:13:47;;;;;;;27.45;5.20;;;;;11.60;100607.00;;;;10316584;28;20281;-73
2023/11/19 09:18:48;;;;;;;29.23;5.10;;;;;11.70;100589.00;;;;10311625;28;20234;-74
2023/11/19 09:23:49;;;;;;;31.10;4.95;;;;;12.10;100567.00;;;;10316063;28;20852;-73
2023/11/19 09:28:50;;;;;;;29.48;6.40;;;;;12.50;100563.00;;;;10317171;28;20255;-73
2023/11/19 09:33:51;;;;;;;25.02;5.75;;;;;12.70;100563.00;;;;10321737;28;20321;-73
2023/11/19 09:38:53;;;;;;;29.83;8.63;;;;;12.80;100569.00;;;;10312258;28;20219;-73
2023/11/19 09:43:55;;;;;;;17.60;4.32;;;;;13.10;100565.00;;;;10315355;28;20293;-73
2023/11/19 09:48:57;;;;;;;23.30;4.43;;;;;13.30;100565.00;;;;10312565;28;20240;-73
2023/11/19 09:53:58;;;;;;;28.42;5.15;;;;;13.60;100566.00;;;;10318015;28;20235;-72
2023/11/19 09:59:00;;;;;;;23.05;4.50;;;;;14.30;100564.00;;;;10310842;28;20229;-73
2023/11/19 10:04:01;;;;;;;26.67;5.22;;;;;14.50;100578.00;;;;10305463;28;20858;-74
2023/11/19 10:09:05;;;;;;;24.25;5.90;;;;;14.80;100572.00;;;;10333493;28;20231;-73
2023/11/19 10:14:06;;;;;;;18.92;3.63;;;;;14.50;100567.00;;;;10314691;28;20358;-73
2023/11/19 10:19:07;;;;;;;14.68;4.10;;;;;14.40;100560.00;;;;10313338;28;20223;-73
2023/11/19 10:24:08;;;;;;;23.73;5.45;;;;;14.50;100560.00;;;;10310224;28;20621;-73
2023/11/19 10:29:13;;;;;;;24.83;5.03;;;;;14.50;100571.00;;;;10323216;28;20227;-74
2023/11/19 10:34:25;;;;;;;23.95;4.45;;;;;15.00;100581.00;;;;10309705;28;20228;-73
2023/11/19 10:39:56;;;;;;;21.27;4.47;;;;;15.10;100579.00;;;;10304906;28;20220;-72
2023/11/19 10:44:57;;;;;;;28.40;4.80;;;;;14.50;100573.00;;;;10317075;28;20310;-72
2023/11/19 10:49:58;;;;;;;18.88;4.38;;;;;14.30;100560.00;;;;10313095;28;20298;-72
2023/11/19 10:55:01;;;;;;;23.77;4.63;;;;;13.70;100571.00;;;;10327310;28;21029;-72
2023/11/19 11:00:10;;;;;;;22.85;4.22;;;;;13.40;100571.00;;;;10310630;28;20821;-73
2023/11/19 11:05:13;;;;;;;21.85;6.82;;;;;14.00;100559.00;;;;10304473;28;20231;-73
2023/11/19 11:10:16;;;;;;;21.70;4.03;;;;;15.00;100570.00;;;;10299769;28;20230;-72
2023/11/19 11:15:19;;;;;;;16.55;3.60;;;;;14.60;100533.00;;;;10322505;28;20900;-72
2023/11/19 11:20:20;;;;;;;13.65;3.50;;;;;14.80;100534.00;;;;10307156;28;20221;-72
2023/11/19 11:25:47;;;;;;;29.50;5.30;;;;;14.90;100557.00;;;;10303823;28;20291;-73
2023/11/19 11:31:26;;;;;;;16.60;4.20;;;;;14.60;100553.00;;;;10313715;28;20227;-74
2023/11/19 11:36:30;;;;;;;20.92;5.03;;;;;14.70;100537.00;;;;10326189;28;20228;-73
2023/11/19 11:41:31;;;;;;;25.40;4.25;;;;;14.90;100533.00;;;;10306250;28;20235;-73
2023/11/19 11:46:32;;;;;;;18.42;4.47;;;;;15.00;100523.00;;;;10311364;28;20227;-73
2023/11/19 11:51:43;;;;;;;21.80;4.82;;;;;15.00;100516.00;;;;10292667;28;20224;-73
2023/11/19 11:57:11;;;;;;;18.00;4.35;;;;;15.30;100497.00;;;;10303623;28;20223;-74
2023/11/19 12:02:19;;;;;;;27.88;4.90;;;;;15.60;100506.00;;;;10309209;28;20669;-73
2023/11/19 12:07:24;;;;;;;23.92;4.35;;;;;15.30;100508.00;;;;10309382;28;20274;-73
2023/11/19 12:12:29;;;;;;;22.80;5.25;;;;;16.00;100522.00;;;;10312603;28;20220;-74
2023/11/19 12:17:33;;;;;;;18.67;3.95;;;;;16.40;100520.00;;;;10291076;28;20244;-73
2023/11/19 12:22:38;;;;;;;25.25;6.88;;;;;15.50;100521.00;;;;10308217;28;20251;-73
2023/11/19 12:27:41;;;;;;;18.25;3.45;;;;;14.80;100507.00;;;;10312933;28;20242;-73
2023/11/19 12:32:44;;;;;;;16.90;3.55;;;;;14.40;100495.00;;;;10310081;28;20228;-73
2023/11/19 12:37:52;;;;;;;15.25;3.78;;;;;14.50;100511.00;;;;10313770;28;20223;-77
2023/11/19 12:42:54;;;;;;;14.75;3.42;;;;;14.50;100521.00;;;;10282937;28;20582;-76
2023/11/19 12:48:06;;;;;;;14.70;3.40;;;;;14.60;100495.00;;;;10302238;28;21056;-76
2023/11/19 12:53:07;;;;;;;17.85;4.05;;;;;14.60;100521.00;;;;10314866;28;20235;-76
2023/11/19 12:58:08;;;;;;;25.15;5.90;;;;;14.60;100524.00;;;;10317264;28;20223;-76
2023/11/19 13:03:09;;;;;;;16.98;4.15;;;;;14.00;100510.00;;;;10316395;28;20315;-76
2023/11/19 13:08:12;;;;;;;21.05;4.07;;;;;13.90;100496.00;;;;10332202;28;20258;-76
2023/11/19 13:13:13;;;;;;;23.20;4.18;;;;;13.80;100492.00;;;;10309070;28;20228;-76
2023/11/19 13:18:16;;;;;;;27.13;5.20;;;;;14.00;100493.00;;;;10329887;28;20267;-76
2023/11/19 13:23:17;;;;;;;17.17;3.80;;;;;13.90;100500.00;;;;10316648;28;20235;-76
2023/11/19 13:28:22;;;;;;;25.63;4.38;;;;;13.60;100483.00;;;;10311342;28;20228;-76
2023/11/19 13:33:23;;;;;;;18.92;4.40;;;;;13.40;100495.00;;;;10313211;28;20224;-76
2023/11/19 13:38:24;;;;;;;22.60;4.78;;;;;13.70;100502.00;;;;10315300;28;20222;-73
2023/11/19 13:43:27;;;;;;;20.95;4.50;;;;;13.60;100486.00;;;;10316909;28;20303;-75
2023/11/19 13:48:29;;;;;;;20.80;4.45;;;;;13.30;100485.00;;;;10324139;28;20220;-76
2023/11/19 13:53:30;;;;;;;21.10;4.32;;;;;13.30;100496.00;;;;10340465;28;20223;-75
2023/11/19 13:58:31;;;;;;;17.92;4.45;;;;;13.20;100481.00;;;;10290253;28;20397;-74
2023/11/19 14:03:33;;;;;;;16.70;3.97;;;;;13.00;100471.00;;;;10302666;28;20220;-76
2023/11/19 14:08:34;;;;;;;28.30;4.63;;;;;13.10;100463.00;;;;10298268;28;20255;-76
2023/11/19 14:13:35;;;;;;;21.10;5.07;;;;;13.10;100467.00;;;;10319113;28;20224;-75
2023/11/19 14:18:37;;;;;;;17.40;4.07;;;;;12.90;100450.00;;;;10309303;28;21076;-75
2023/11/19 14:23:38;;;;;;;27.60;3.88;;;;;12.70;100455.00;;;;10289363;28;20224;-75
2023/11/19 14:28:39;;;;;;;14.68;4.25;;;;;12.70;100461.00;;;;10296177;28;20241;-76
2023/11/19 14:33:56;;;;;;;25.75;4.53;;;;;12.50;100451.00;;;;10309825;28;20224;-75
2023/11/19 14:39:01;;;;;;;18.35;4.28;;;;;12.30;100440.00;;;;10306710;28;20274;-76
2023/11/19 14:44:03;;;;;;;15.73;3.88;;;;;12.00;100449.00;;;;10309185;28;20784;-76
2023/11/19 14:49:04;;;;;;;21.00;4.88;;;;;12.00;100446.00;;;;10310935;28;20319;-74
2023/11/19 14:54:05;;;;;;;25.02;4.95;;;;;12.20;100435.00;;;;10306314;28;20302;-74
2023/11/19 14:59:07;;;;;;;28.27;5.82;;;;;12.00;100437.00;;;;10299943;28;20233;-74
2023/11/19 15:04:08;;;;;;;15.05;4.50;;;;;12.00;100436.00;;;;10296288;28;20247;-73
2023/11/19 15:09:16;;;;;;;23.48;4.63;;;;;12.00;100433.00;;;;10305547;28;20230;-74
2023/11/19 15:14:18;;;;;;;22.63;5.83;;;;;12.00;100436.00;;;;10305621;28;20239;-73
2023/11/19 15:19:23;;;;;;;19.45;4.22;;;;;12.00;100437.00;;;;10285598;28;20220;-74
2023/11/19 15:24:25;;;;;;;25.65;4.93;;;;;11.90;100426.00;;;;10305018;28;20238;-75
2023/11/19 15:29:26;;;;;;;19.10;4.93;;;;;11.90;100432.00;;;;10316301;28;20331;-74
2023/11/19 15:34:27;;;;;;;22.23;4.72;;;;;11.90;100425.00;;;;10306769;28;20216;-74
2023/11/19 15:39:29;;;;;;;24.65;4.47;;;;;11.90;100409.00;;;;10315549;28;20577;-74
2023/11/19 15:44:30;;;;;;;23.70;4.88;;;;;11.90;100411.00;;;;10310716;28;20209;-74
2023/11/19 15:49:31;;;;;;;27.10;5.25;;;;;12.00;100420.00;;;;10281204;28;20234;-74
2023/11/19 15:54:32;;;;;;;20.70;3.78;;;;;12.00;100428.00;;;;10293239;28;20306;-74
2023/11/19 15:59:33;;;;;;;26.23;4.63;;;;;12.10;100446.00;;;;10327860;28;20235;-74
2023/11/19 16:04:34;;;;;;;25.73;5.55;;;;;12.00;100443.00;;;;10271498;28;20225;-74
2023/11/19 16:09:37;;;;;;;14.82;4.45;;;;;11.90;100440.00;;;;10309707;28;20242;-74
2023/11/19 16:14:38;;;;;;;20.30;4.10;;;;;11.90;100437.00;;;;10308063;28;20243;-74
2023/11/19 16:19:40;;;;;;;20.40;4.40;;;;;11.90;100452.00;;;;10315642;28;20895;-73
2023/11/19 16:24:42;;;;;;;17.10;3.55;;;;;11.70;100460.00;;;;10314269;28;20227;-73
2023/11/19 16:29:43;;;;;;;20.13;4.70;;;;;11.50;100463.00;;;;10308342;28;20517;-73
2023/11/19 16:34:47;;;;;;;21.20;3.63;;;;;11.50;100472.00;;;;10308251;28;20374;-73
2023/11/19 16:39:48;;;;;;;18.80;3.47;;;;;11.40;100456.00;;;;10319216;28;20239;-74
2023/11/19 16:44:50;;;;;;;20.10;4.30;;;;;11.40;100467.00;;;;10312152;28;21064;-74
2023/11/19 16:49:51;;;;;;;17.70;4.17;;;;;11.30;100458.00;;;;10316453;28;20236;-74
2023/11/19 16:54:55;;;;;;;14.03;4.10;;;;;11.30;100455.00;;;;10313484;28;20228;-74
2023/11/19 16:59:57;;;;;;;21.83;3.27;;;;;11.30;100449.00;;;;10315071;28;20248;-74
2023/11/19 17:04:58;;;;;;;20.90;4.50;;;;;11.30;100465.00;;;;10308730;28;20224;-74
2023/11/19 17:10:02;;;;;;;21.03;3.60;;;;;11.30;100456.00;;;;10309718;28;20262;-73
2023/11/19 17:15:05;;;;;;;17.13;3.73;;;;;11.30;100458.00;;;;10315447;28;20303;-73
2023/11/19 17:20:08;;;;;;;14.10;3.00;;;;;11.30;100451.00;;;;10308554;28;20216;-73
2023/11/19 17:25:10;;;;;;;20.27;4.57;;;;;11.40;100453.00;;;;10311022;28;20220;-72
2023/11/19 17:30:11;;;;;;;21.80;3.80;;;;;11.40;100456.00;;;;10321435;28;20588;-72
2023/11/19 17:35:12;;;;;;;21.77;3.87;;;;;11.40;100444.00;;;;10304440;28;20697;-72
2023/11/19 17:40:16;;;;;;;14.65;3.55;;;;;11.40;100449.00;;;;10308866;28;20682;-72
2023/11/19 17:45:17;;;;;;;15.65;3.70;;;;;11.50;100452.00;;;;10320371;28;20223;-72
2023/11/19 17:50:20;;;;;;;14.23;3.43;;;;;11.40;100467.00;;;;10305583;28;20236;-73
2023/11/19 17:55:24;;;;;;;20.63;4.10;;;;;11.30;100461.00;;;;10302307;28;20625;-73
2023/11/19 18:00:27;;;;;;;17.38;3.58;;;;;11.30;100476.00;;;;10323540;28;20230;-74
2023/11/19 18:05:28;;;;;;;17.52;3.50;;;;;11.20;100467.00;;;;10323590;28;20303;-73
2023/11/19 18:10:29;;;;;;;17.93;3.60;;;;;11.20;100467.00;;;;10313467;28;20224;-73
2023/11/19 18:15:30;;;;;;;16.83;4.10;;;;;11.20;100467.00;;;;10318936;28;20326;-73
2023/11/19 18:20:32;;;;;;;17.53;3.80;;;;;11.20;100462.00;;;;10305616;28;20251;-73
2023/11/19 18:25:33;;;;;;;15.20;3.63;;;;;11.30;100457.00;;;;10294372;28;20223;-74
2023/11/19 18:30:34;;;;;;;13.90;2.93;;;;;11.30;100459.00;;;;10316051;28;20282;-74
2023/11/19 18:35:36;;;;;;;12.10;2.60;;;;;11.40;100463.00;;;;10307177;28;20228;-73
2023/11/19 18:40:37;;;;;;;11.27;2.53;;;;;11.40;100471.00;;;;10305232;28;20228;-74
2023/11/19 18:45:38;;;;;;;12.93;2.37;;;;;11.50;100435.00;;;;10299632;28;20219;-73
2023/11/19 18:50:40;;;;;;;12.10;2.65;;;;;11.50;100452.00;;;;10301933;28;20259;-74
2023/11/19 18:55:44;;;;;;;12.65;2.45;;;;;11.60;100454.00;;;;10302169;28;20355;-74
2023/11/19 19:00:45;;;;;;;12.30;2.53;;;;;11.60;100441.00;;;;10307254;28;20262;-73
2023/11/19 19:05:47;;;;;;;14.77;2.93;;;;;11.60;100448.00;;;;10319583;28;20374;-73
2023/11/19 19:10:48;;;;;;;12.77;2.33;;;;;11.60;100461.00;;;;10334113;28;20590;-73
2023/11/19 19:15:49;;;;;;;13.50;2.30;;;;;11.60;100465.00;;;;10321033;28;20227;-73
2023/11/19 19:20:51;;;;;;;11.67;3.60;;;;;11.60;100460.00;;;;10318331;28;20232;-74
2023/11/19 19:25:52;;;;;;;9.93;2.93;;;;;11.50;100467.00;;;;10304816;28;20331;-73
2023/11/19 19:30:57;;;;;;;9.60;2.07;;;;;11.50;100476.00;;;;10328250;28;20259;-74
2023/11/19 19:35:58;;;;;;;11.70;2.43;;;;;11.40;100469.00;;;;10333129;28;20258;-72
2023/11/19 19:41:04;;;;;;;12.80;2.50;;;;;11.20;100477.00;;;;10318243;28;20351;-72
2023/11/19 19:46:05;;;;;;;14.20;2.67;;;;;11.20;100488.00;;;;10309903;28;20227;-72
2023/11/19 19:51:07;;;;;;;13.77;2.70;;;;;11.10;100478.00;;;;10318056;28;20242;-71
2023/11/19 19:56:08;;;;;;;14.33;2.40;;;;;11.00;100474.00;;;;10318504;28;20259;-71
2023/11/19 20:01:10;;;;;;;10.30;2.30;;;;;11.00;100481.00;;;;10316860;28;20211;-72
2023/11/19 20:06:11;;;;;;;15.53;2.60;;;;;11.00;100459.00;;;;10311207;28;20251;-72
2023/11/19 20:11:12;;;;;;;14.07;3.17;;;;;11.00;100442.00;;;;10309185;28;20259;-72
2023/11/19 20:16:13;;;;;;;25.03;4.07;;;;;11.00;100462.00;;;;10332895;28;20235;-72
2023/11/19 20:21:14;;;;;;;8.80;2.30;;;;;11.10;100467.00;;;;10295496;28;20958;-72
2023/11/19 20:26:18;;;;;;;10.83;2.50;;;;;11.10;100455.00;;;;10309383;28;20862;-71
2023/11/19 20:31:19;;;;;;;8.30;2.37;;;;;11.20;100454.00;;;;10310974;28;20362;-72
2023/11/19 20:36:21;;;;;;;16.47;3.50;;;;;11.30;100454.00;;;;10313993;28;20232;-72
2023/11/19 20:41:22;;;;;;;19.27;3.57;;;;;11.30;100458.00;;;;10303478;28;20227;-72
2023/11/19 20:46:23;;;;;;;14.87;2.67;;;;;11.30;100447.00;;;;10308685;28;20232;-75
2023/11/19 20:51:24;;;;;;;10.17;2.50;;;;;11.40;100471.00;;;;10317395;28;20234;-74
2023/11/19 20:56:32;;;;;;;9.47;2.60;;;;;11.40;100485.00;;;;10295246;28;20224;-75
2023/11/19 21:01:34;;;;;;;9.20;2.08;;;;;11.40;100490.00;;;;10308026;28;20236;-75
2023/11/19 21:06:35;;;;;;;9.37;2.37;;;;;11.40;100491.00;;;;10287793;28;20745;-75
2023/11/19 21:11:56;;;;;;;7.35;1.80;;;;;11.30;100499.00;;;;10294578;28;20223;-75
2023/11/19 21:16:57;;;;;;;7.82;2.20;;;;;11.30;100497.00;;;;10314984;28;20263;-75
2023/11/19 21:21:58;;;;;;;8.48;2.20;;;;;11.30;100497.00;;;;10309391;28;20220;-75
2023/11/19 21:27:00;;;;;;;8.63;2.05;;;;;11.30;100496.00;;;;10299709;28;20281;-75
2023/11/19 21:32:01;;;;;;;10.30;2.57;;;;;11.30;100492.00;;;;10293227;28;20342;-75
2023/11/19 21:37:03;;;;;;;9.27;2.78;;;;;11.30;100485.00;;;;10316724;28;20306;-75
2023/11/19 21:42:06;;;;;;;8.90;2.43;;;;;11.30;100483.00;;;;10307226;28;20238;-75
2023/11/19 21:47:08;;;;;;;16.27;3.00;;;;;11.20;100485.00;;;;10307743;28;20220;-75
2023/11/19 21:52:10;;;;;;;7.70;2.30;;;;;11.20;100487.00;;;;10313365;28;20325;-75
2023/11/19 21:57:11;;;;;;;8.63;2.23;;;;;11.30;100485.00;;;;10323889;28;20224;-72
2023/11/19 22:02:12;;;;;;;7.90;2.20;;;;;11.30;100471.00;;;;10299867;28;20391;-72
2023/11/19 22:07:14;;;;;;;13.73;2.70;;;;;11.20;100493.00;;;;10307498;28;20803;-72
2023/11/19 22:12:16;;;;;;;11.90;2.73;;;;;11.20;100503.00;;;;10305571;28;20223;-72
2023/11/19 22:17:17;;;;;;;11.60;2.80;;;;;11.30;100510.00;;;;10312015;28;20675;-72
2023/11/19 22:22:18;;;;;;;17.93;3.10;;;;;11.20;100508.00;;;;10306872;28;20318;-72
2023/11/19 22:27:19;;;;;;;11.23;2.50;;;;;11.00;100512.00;;;;10309340;28;20227;-72
2023/11/19 22:32:21;;;;;;;11.80;3.23;;;;;10.90;100511.00;;;;10308759;28;21356;-72
2023/11/19 22:37:25;;;;;;;8.47;2.60;;;;;10.90;100506.00;;;;10309194;28;20231;-72
2023/11/19 22:42:26;;;;;;;18.43;3.60;;;;;10.80;100501.00;;;;10323590;28;20228;-72
2023/11/19 22:47:28;;;;;;;15.60;2.97;;;;;10.80;100493.00;;;;10304298;28;20228;-72
2023/11/19 22:52:30;;;;;;;14.40;2.50;;;;;10.80;100486.00;;;;10308263;28;20306;-72
2023/11/19 22:57:31;;;;;;;16.93;3.37;;;;;10.80;100487.00;;;;10303719;28;20250;-73
2023/11/19 23:02:33;;;;;;;13.00;2.70;;;;;10.80;100488.00;;;;10303660;28;20231;-72
2023/11/19 23:07:34;;;;;;;17.80;3.83;;;;;10.80;100495.00;;;;10315453;28;20283;-73
2023/11/19 23:12:35;;;;;;;8.70;2.63;;;;;10.80;100499.00;;;;10315051;28;20293;-71
2023/11/19 23:17:36;;;;;;;13.60;2.73;;;;;10.80;100510.00;;;;10287312;28;20223;-71
2023/11/19 23:22:37;;;;;;;9.53;2.77;;;;;10.80;100514.00;;;;10285081;28;20227;-72
2023/11/19 23:27:39;;;;;;;11.33;2.27;;;;;10.80;100527.00;;;;10297619;28;20224;-72
2023/11/19 23:32:40;;;;;;;10.87;2.20;;;;;10.80;100518.00;;;;10282238;28;20910;-71
2023/11/19 23:37:41;;;;;;;14.50;2.97;;;;;10.80;100513.00;;;;10306349;28;20246;-73
2023/11/19 23:42:43;;;;;;;10.93;2.73;;;;;10.80;100511.00;;;;10301242;28;20263;-73
2023/11/19 23:47:45;;;;;;;14.83;3.07;;;;;10.80;100528.00;;;;10298383;28;20271;-73
2023/11/19 23:52:48;;;;;;;12.33;2.33;;;;;10.80;100531.00;;;;10292467;28;20630;-72
2023/11/19 23:57:49;;;;;;;11.70;2.60;;;;;10.90;100528.00;;;;10306892;28;20235;-70
